sensor_id;sensor_type;location;lat;lon;timestamp;temperature;humidity
21770;DHT22;11046;49.558;8.674;2023-04-15T00:02:17;5.70;81.40
21770;DHT22;11046;49.558;8.674;2023-04-15T00:05:18;5.70;81.20
21770;DHT22;11046;49.558;8.674;2023-04-15T00:08:18;5.60;81.30
21770;DHT22;11046;49.558;8.674;2023-04-15T00:11:19;5.40;82.40
21770;DHT22;11046;49.558;8.674;2023-04-15T00:14:20;5.20;83.00
21770;DHT22;11046;49.558;8.674;2023-04-15T00:17:21;5.10;83.20
21770;DHT22;11046;49.558;8.674;2023-04-15T00:20:22;5.20;83.40
21770;DHT22;11046;49.558;8.674;2023-04-15T00:23:23;5.20;83.40
21770;DHT22;11046;49.558;8.674;2023-04-15T00:26:23;5.20;83.50
21770;DHT22;11046;49.558;8.674;2023-04-15T00:29:24;5.10;83.70
21770;DHT22;11046;49.558;8.674;2023-04-15T00:32:25;5.10;84.10
21770;DHT22;11046;49.558;8.674;2023-04-15T00:35:25;5.10;84.00
21770;DHT22;11046;49.558;8.674;2023-04-15T00:38:26;5.20;83.60
21770;DHT22;11046;49.558;8.674;2023-04-15T00:41:28;5.10;83.60
21770;DHT22;11046;49.558;8.674;2023-04-15T00:44:29;5.10;84.80
21770;DHT22;11046;49.558;8.674;2023-04-15T00:47:30;5.00;84.50
21770;DHT22;11046;49.558;8.674;2023-04-15T00:50:31;4.90;85.10
21770;DHT22;11046;49.558;8.674;2023-04-15T00:53:32;4.70;85.40
21770;DHT22;11046;49.558;8.674;2023-04-15T00:56:34;4.60;85.70
21770;DHT22;11046;49.558;8.674;2023-04-15T00:59:35;4.60;86.40
21770;DHT22;11046;49.558;8.674;2023-04-15T01:02:36;4.50;86.70
21770;DHT22;11046;49.558;8.674;2023-04-15T01:05:38;4.50;86.90
21770;DHT22;11046;49.558;8.674;2023-04-15T01:08:39;4.50;87.00
21770;DHT22;11046;49.558;8.674;2023-04-15T01:11:40;4.50;87.50
21770;DHT22;11046;49.558;8.674;2023-04-15T01:14:42;4.40;87.80
21770;DHT22;11046;49.558;8.674;2023-04-15T01:17:42;4.30;88.10
21770;DHT22;11046;49.558;8.674;2023-04-15T01:20:43;4.30;88.40
21770;DHT22;11046;49.558;8.674;2023-04-15T01:23:46;4.20;88.60
21770;DHT22;11046;49.558;8.674;2023-04-15T01:26:47;4.20;88.70
21770;DHT22;11046;49.558;8.674;2023-04-15T01:29:49;4.20;88.60
21770;DHT22;11046;49.558;8.674;2023-04-15T01:32:50;4.20;88.60
21770;DHT22;11046;49.558;8.674;2023-04-15T01:35:53;4.10;88.80
21770;DHT22;11046;49.558;8.674;2023-04-15T01:38:58;4.00;89.20
21770;DHT22;11046;49.558;8.674;2023-04-15T01:41:59;3.90;89.40
21770;DHT22;11046;49.558;8.674;2023-04-15T01:44:59;3.80;90.00
21770;DHT22;11046;49.558;8.674;2023-04-15T01:48:00;3.70;90.30
21770;DHT22;11046;49.558;8.674;2023-04-15T01:51:00;3.70;90.30
21770;DHT22;11046;49.558;8.674;2023-04-15T01:54:01;3.80;90.20
21770;DHT22;11046;49.558;8.674;2023-04-15T01:57:02;3.90;90.10
21770;DHT22;11046;49.558;8.674;2023-04-15T02:00:04;3.90;90.00
21770;DHT22;11046;49.558;8.674;2023-04-15T02:03:13;3.90;90.00
21770;DHT22;11046;49.558;8.674;2023-04-15T02:06:14;3.90;90.10
21770;DHT22;11046;49.558;8.674;2023-04-15T02:09:14;3.90;90.10
21770;DHT22;11046;49.558;8.674;2023-04-15T02:12:15;3.80;90.20
21770;DHT22;11046;49.558;8.674;2023-04-15T02:15:16;3.80;90.30
21770;DHT22;11046;49.558;8.674;2023-04-15T02:18:16;3.80;90.30
21770;DHT22;11046;49.558;8.674;2023-04-15T02:21:17;3.80;90.50
21770;DHT22;11046;49.558;8.674;2023-04-15T02:24:18;3.80;90.50
21770;DHT22;11046;49.558;8.674;2023-04-15T02:27:18;3.70;90.50
21770;DHT22;11046;49.558;8.674;2023-04-15T02:30:19;3.70;90.60
21770;DHT22;11046;49.558;8.674;2023-04-15T02:33:20;3.60;90.60
21770;DHT22;11046;49.558;8.674;2023-04-15T02:36:21;3.60;90.80
21770;DHT22;11046;49.558;8.674;2023-04-15T02:39:23;3.50;90.90
21770;DHT22;11046;49.558;8.674;2023-04-15T02:42:23;3.50;91.00
21770;DHT22;11046;49.558;8.674;2023-04-15T02:45:27;3.60;91.10
21770;DHT22;11046;49.558;8.674;2023-04-15T02:48:27;3.60;91.00
21770;DHT22;11046;49.558;8.674;2023-04-15T02:51:29;3.60;91.00
21770;DHT22;11046;49.558;8.674;2023-04-15T02:54:31;3.60;91.10
21770;DHT22;11046;49.558;8.674;2023-04-15T02:57:33;3.60;91.00
21770;DHT22;11046;49.558;8.674;2023-04-15T03:00:39;3.60;91.00
21770;DHT22;11046;49.558;8.674;2023-04-15T03:03:39;3.50;91.10
21770;DHT22;11046;49.558;8.674;2023-04-15T03:06:40;3.60;91.20
21770;DHT22;11046;49.558;8.674;2023-04-15T03:09:43;3.60;91.20
21770;DHT22;11046;49.558;8.674;2023-04-15T03:12:44;3.60;91.20
21770;DHT22;11046;49.558;8.674;2023-04-15T03:15:50;3.50;91.20
21770;DHT22;11046;49.558;8.674;2023-04-15T03:18:50;3.50;91.30
21770;DHT22;11046;49.558;8.674;2023-04-15T03:21:53;3.40;91.40
21770;DHT22;11046;49.558;8.674;2023-04-15T03:24:54;3.20;91.60
21770;DHT22;11046;49.558;8.674;2023-04-15T03:27:55;3.20;91.80
21770;DHT22;11046;49.558;8.674;2023-04-15T03:30:56;3.30;91.80
21770;DHT22;11046;49.558;8.674;2023-04-15T03:33:56;3.20;91.80
21770;DHT22;11046;49.558;8.674;2023-04-15T03:36:57;3.10;92.10
21770;DHT22;11046;49.558;8.674;2023-04-15T03:39:58;3.00;92.30
21770;DHT22;11046;49.558;8.674;2023-04-15T03:42:58;3.00;92.30
21770;DHT22;11046;49.558;8.674;2023-04-15T03:45:59;3.00;92.30
21770;DHT22;11046;49.558;8.674;2023-04-15T03:49:00;3.00;92.40
21770;DHT22;11046;49.558;8.674;2023-04-15T03:52:01;3.10;92.30
21770;DHT22;11046;49.558;8.674;2023-04-15T03:55:01;3.20;92.10
21770;DHT22;11046;49.558;8.674;2023-04-15T03:58:02;3.30;92.00
21770;DHT22;11046;49.558;8.674;2023-04-15T04:01:02;3.40;91.80
21770;DHT22;11046;49.558;8.674;2023-04-15T04:04:03;3.30;91.70
21770;DHT22;11046;49.558;8.674;2023-04-15T04:07:07;3.30;91.70
21770;DHT22;11046;49.558;8.674;2023-04-15T04:10:13;3.30;91.80
21770;DHT22;11046;49.558;8.674;2023-04-15T04:13:21;3.40;91.70
21770;DHT22;11046;49.558;8.674;2023-04-15T04:16:32;3.40;91.60
21770;DHT22;11046;49.558;8.674;2023-04-15T04:19:35;3.40;91.60
21770;DHT22;11046;49.558;8.674;2023-04-15T04:22:46;3.30;91.60
21770;DHT22;11046;49.558;8.674;2023-04-15T04:25:49;3.30;91.90
21770;DHT22;11046;49.558;8.674;2023-04-15T04:28:50;3.20;92.00
21770;DHT22;11046;49.558;8.674;2023-04-15T04:31:56;3.10;92.20
21770;DHT22;11046;49.558;8.674;2023-04-15T04:35:00;3.10;92.30
21770;DHT22;11046;49.558;8.674;2023-04-15T04:38:00;3.10;92.40
21770;DHT22;11046;49.558;8.674;2023-04-15T04:41:01;3.10;92.50
21770;DHT22;11046;49.558;8.674;2023-04-15T04:44:04;3.10;92.70
21770;DHT22;11046;49.558;8.674;2023-04-15T04:47:11;3.10;92.70
21770;DHT22;11046;49.558;8.674;2023-04-15T04:50:25;3.00;92.70
21770;DHT22;11046;49.558;8.674;2023-04-15T04:53:34;3.00;92.70
21770;DHT22;11046;49.558;8.674;2023-04-15T04:56:36;3.00;92.70
21770;DHT22;11046;49.558;8.674;2023-04-15T04:59:39;3.00;92.70
21770;DHT22;11046;49.558;8.674;2023-04-15T05:03:06;3.10;92.70
21770;DHT22;11046;49.558;8.674;2023-04-15T05:06:14;3.10;92.70
21770;DHT22;11046;49.558;8.674;2023-04-15T05:09:22;3.10;92.80
21770;DHT22;11046;49.558;8.674;2023-04-15T05:12:25;3.00;92.90
21770;DHT22;11046;49.558;8.674;2023-04-15T05:15:31;3.00;92.90
21770;DHT22;11046;49.558;8.674;2023-04-15T05:18:32;3.10;92.90
21770;DHT22;11046;49.558;8.674;2023-04-15T05:21:37;3.10;92.90
21770;DHT22;11046;49.558;8.674;2023-04-15T05:24:41;3.00;93.10
21770;DHT22;11046;49.558;8.674;2023-04-15T05:27:50;3.10;93.20
21770;DHT22;11046;49.558;8.674;2023-04-15T05:30:58;3.00;93.30
21770;DHT22;11046;49.558;8.674;2023-04-15T05:34:04;2.90;93.40
21770;DHT22;11046;49.558;8.674;2023-04-15T05:37:32;3.00;93.90
21770;DHT22;11046;49.558;8.674;2023-04-15T05:40:59;3.00;93.70
21770;DHT22;11046;49.558;8.674;2023-04-15T05:44:02;3.20;93.40
21770;DHT22;11046;49.558;8.674;2023-04-15T05:47:13;3.30;93.20
21770;DHT22;11046;49.558;8.674;2023-04-15T05:50:24;3.40;93.30
21770;DHT22;11046;49.558;8.674;2023-04-15T05:53:53;3.50;93.20
21770;DHT22;11046;49.558;8.674;2023-04-15T05:56:59;3.60;93.20
21770;DHT22;11046;49.558;8.674;2023-04-15T06:00:08;3.60;93.20
21770;DHT22;11046;49.558;8.674;2023-04-15T06:03:14;3.60;93.30
21770;DHT22;11046;49.558;8.674;2023-04-15T06:06:20;3.70;93.20
21770;DHT22;11046;49.558;8.674;2023-04-15T06:09:26;3.80;93.20
21770;DHT22;11046;49.558;8.674;2023-04-15T06:17:25;4.00;93.50
21770;DHT22;11046;49.558;8.674;2023-04-15T06:20:31;4.20;93.30
21770;DHT22;11046;49.558;8.674;2023-04-15T06:23:36;4.30;93.40
21770;DHT22;11046;49.558;8.674;2023-04-15T06:26:39;4.60;93.60
21770;DHT22;11046;49.558;8.674;2023-04-15T06:29:40;4.90;93.60
21770;DHT22;11046;49.558;8.674;2023-04-15T06:32:46;5.10;93.70
21770;DHT22;11046;49.558;8.674;2023-04-15T06:35:58;5.40;93.70
21770;DHT22;11046;49.558;8.674;2023-04-15T06:39:03;5.70;93.60
21770;DHT22;11046;49.558;8.674;2023-04-15T06:45:37;6.00;93.60
21770;DHT22;11046;49.558;8.674;2023-04-15T06:49:02;6.20;93.50
21770;DHT22;11046;49.558;8.674;2023-04-15T06:52:05;6.30;93.50
21770;DHT22;11046;49.558;8.674;2023-04-15T06:55:07;6.50;93.40
21770;DHT22;11046;49.558;8.674;2023-04-15T06:58:13;6.50;93.20
21770;DHT22;11046;49.558;8.674;2023-04-15T07:01:13;6.60;93.30
21770;DHT22;11046;49.558;8.674;2023-04-15T07:04:22;6.90;93.50
21770;DHT22;11046;49.558;8.674;2023-04-15T07:07:29;7.20;93.40
21770;DHT22;11046;49.558;8.674;2023-04-15T07:10:35;7.50;93.30
21770;DHT22;11046;49.558;8.674;2023-04-15T07:13:44;7.90;93.30
21770;DHT22;11046;49.558;8.674;2023-04-15T07:16:48;8.30;93.10
21770;DHT22;11046;49.558;8.674;2023-04-15T07:20:09;8.50;92.90
21770;DHT22;11046;49.558;8.674;2023-04-15T07:23:33;8.90;92.80
21770;DHT22;11046;49.558;8.674;2023-04-15T07:26:40;9.00;92.50
21770;DHT22;11046;49.558;8.674;2023-04-15T07:29:49;9.10;92.40
21770;DHT22;11046;49.558;8.674;2023-04-15T07:32:57;9.30;92.40
21770;DHT22;11046;49.558;8.674;2023-04-15T07:36:08;9.50;92.10
21770;DHT22;11046;49.558;8.674;2023-04-15T07:39:15;9.50;91.90
21770;DHT22;11046;49.558;8.674;2023-04-15T07:42:20;9.50;91.90
21770;DHT22;11046;49.558;8.674;2023-04-15T07:45:50;9.60;91.90
21770;DHT22;11046;49.558;8.674;2023-04-15T07:49:00;9.60;91.80
21770;DHT22;11046;49.558;8.674;2023-04-15T07:52:03;9.70;91.90
21770;DHT22;11046;49.558;8.674;2023-04-15T07:58:31;10.00;91.70
21770;DHT22;11046;49.558;8.674;2023-04-15T08:01:38;10.10;91.60
21770;DHT22;11046;49.558;8.674;2023-04-15T08:04:41;10.40;91.50
21770;DHT22;11046;49.558;8.674;2023-04-15T08:07:51;10.50;91.50
21770;DHT22;11046;49.558;8.674;2023-04-15T08:10:55;10.80;91.50
21770;DHT22;11046;49.558;8.674;2023-04-15T08:14:06;11.10;91.30
21770;DHT22;11046;49.558;8.674;2023-04-15T08:17:09;11.30;91.10
21770;DHT22;11046;49.558;8.674;2023-04-15T08:20:15;11.60;90.90
21770;DHT22;11046;49.558;8.674;2023-04-15T08:23:26;11.80;90.60
21770;DHT22;11046;49.558;8.674;2023-04-15T08:26:49;12.00;90.40
21770;DHT22;11046;49.558;8.674;2023-04-15T08:29:55;12.20;90.00
21770;DHT22;11046;49.558;8.674;2023-04-15T08:32:59;12.40;90.00
21770;DHT22;11046;49.558;8.674;2023-04-15T08:36:03;12.80;89.60
21770;DHT22;11046;49.558;8.674;2023-04-15T08:39:12;13.30;88.50
21770;DHT22;11046;49.558;8.674;2023-04-15T08:42:33;13.70;87.70
21770;DHT22;11046;49.558;8.674;2023-04-15T08:45:43;14.10;86.90
21770;DHT22;11046;49.558;8.674;2023-04-15T08:49:09;14.60;85.60
21770;DHT22;11046;49.558;8.674;2023-04-15T08:52:27;14.80;84.80
21770;DHT22;11046;49.558;8.674;2023-04-15T08:55:32;15.10;84.80
21770;DHT22;11046;49.558;8.674;2023-04-15T08:58:37;15.40;83.50
21770;DHT22;11046;49.558;8.674;2023-04-15T09:01:48;15.40;83.10
21770;DHT22;11046;49.558;8.674;2023-04-15T09:04:55;15.30;83.00
21770;DHT22;11046;49.558;8.674;2023-04-15T09:08:00;15.20;83.10
21770;DHT22;11046;49.558;8.674;2023-04-15T09:11:05;15.20;83.40
21770;DHT22;11046;49.558;8.674;2023-04-15T09:14:16;15.30;82.80
21770;DHT22;11046;49.558;8.674;2023-04-15T09:17:32;15.50;82.90
21770;DHT22;11046;49.558;8.674;2023-04-15T09:20:48;15.70;82.70
21770;DHT22;11046;49.558;8.674;2023-04-15T09:24:03;15.80;81.70
21770;DHT22;11046;49.558;8.674;2023-04-15T09:27:10;15.70;81.80
21770;DHT22;11046;49.558;8.674;2023-04-15T09:30:18;15.40;81.40
21770;DHT22;11046;49.558;8.674;2023-04-15T09:33:25;15.40;82.10
21770;DHT22;11046;49.558;8.674;2023-04-15T09:39:48;15.40;81.70
21770;DHT22;11046;49.558;8.674;2023-04-15T09:42:55;15.60;82.10
21770;DHT22;11046;49.558;8.674;2023-04-15T09:46:07;16.00;82.30
21770;DHT22;11046;49.558;8.674;2023-04-15T09:49:32;16.20;80.90
21770;DHT22;11046;49.558;8.674;2023-04-15T09:52:52;16.20;80.10
21770;DHT22;11046;49.558;8.674;2023-04-15T09:56:03;16.00;79.80
21770;DHT22;11046;49.558;8.674;2023-04-15T09:59:18;15.90;79.10
21770;DHT22;11046;49.558;8.674;2023-04-15T10:02:32;15.80;78.20
21770;DHT22;11046;49.558;8.674;2023-04-15T10:05:52;15.70;76.80
21770;DHT22;11046;49.558;8.674;2023-04-15T10:09:02;15.80;76.50
21770;DHT22;11046;49.558;8.674;2023-04-15T10:12:23;15.60;74.80
21770;DHT22;11046;49.558;8.674;2023-04-15T10:15:28;15.70;74.90
21770;DHT22;11046;49.558;8.674;2023-04-15T10:18:41;15.60;73.20
21770;DHT22;11046;49.558;8.674;2023-04-15T10:22:02;15.60;73.00
21770;DHT22;11046;49.558;8.674;2023-04-15T10:25:24;15.60;72.00
21770;DHT22;11046;49.558;8.674;2023-04-15T10:28:47;15.60;71.80
21770;DHT22;11046;49.558;8.674;2023-04-15T10:32:06;15.60;71.70
21770;DHT22;11046;49.558;8.674;2023-04-15T10:35:16;15.50;71.50
21770;DHT22;11046;49.558;8.674;2023-04-15T10:38:45;15.50;71.10
21770;DHT22;11046;49.558;8.674;2023-04-15T10:42:16;15.40;70.30
21770;DHT22;11046;49.558;8.674;2023-04-15T10:45:34;15.30;70.10
21770;DHT22;11046;49.558;8.674;2023-04-15T10:48:47;15.20;70.20
21770;DHT22;11046;49.558;8.674;2023-04-15T10:52:07;15.30;69.60
21770;DHT22;11046;49.558;8.674;2023-04-15T10:55:43;15.20;69.40
21770;DHT22;11046;49.558;8.674;2023-04-15T10:58:47;14.90;69.20
21770;DHT22;11046;49.558;8.674;2023-04-15T11:02:07;14.80;69.50
21770;DHT22;11046;49.558;8.674;2023-04-15T11:05:24;14.50;69.90
21770;DHT22;11046;49.558;8.674;2023-04-15T11:08:58;14.50;70.10
21770;DHT22;11046;49.558;8.674;2023-04-15T11:15:53;14.40;69.90
21770;DHT22;11046;49.558;8.674;2023-04-15T11:18:58;14.30;69.80
21770;DHT22;11046;49.558;8.674;2023-04-15T11:22:11;14.40;69.40
21770;DHT22;11046;49.558;8.674;2023-04-15T11:25:25;14.30;68.50
21770;DHT22;11046;49.558;8.674;2023-04-15T11:28:30;14.40;68.80
21770;DHT22;11046;49.558;8.674;2023-04-15T11:31:31;14.50;68.60
21770;DHT22;11046;49.558;8.674;2023-04-15T11:34:34;14.60;68.30
21770;DHT22;11046;49.558;8.674;2023-04-15T11:37:40;14.70;67.80
21770;DHT22;11046;49.558;8.674;2023-04-15T11:40:42;14.90;67.80
21770;DHT22;11046;49.558;8.674;2023-04-15T11:43:43;15.10;67.20
21770;DHT22;11046;49.558;8.674;2023-04-15T11:46:44;15.20;67.00
21770;DHT22;11046;49.558;8.674;2023-04-15T11:49:45;15.50;65.90
21770;DHT22;11046;49.558;8.674;2023-04-15T11:52:56;15.90;65.60
21770;DHT22;11046;49.558;8.674;2023-04-15T11:55:57;16.10;63.90
21770;DHT22;11046;49.558;8.674;2023-04-15T11:58:58;16.10;63.30
21770;DHT22;11046;49.558;8.674;2023-04-15T12:02:11;15.80;63.30
21770;DHT22;11046;49.558;8.674;2023-04-15T12:05:12;15.70;63.30
21770;DHT22;11046;49.558;8.674;2023-04-15T12:08:15;15.70;63.90
21770;DHT22;11046;49.558;8.674;2023-04-15T12:11:17;15.90;63.80
21770;DHT22;11046;49.558;8.674;2023-04-15T12:17:25;16.20;61.90
21770;DHT22;11046;49.558;8.674;2023-04-15T12:20:29;16.10;61.40
21770;DHT22;11046;49.558;8.674;2023-04-15T12:23:30;15.70;61.30
21770;DHT22;11046;49.558;8.674;2023-04-15T12:26:42;15.40;61.30
21770;DHT22;11046;49.558;8.674;2023-04-15T12:29:43;15.10;61.60
21770;DHT22;11046;49.558;8.674;2023-04-15T12:32:47;15.00;61.90
21770;DHT22;11046;49.558;8.674;2023-04-15T12:35:48;15.00;62.00
21770;DHT22;11046;49.558;8.674;2023-04-15T12:38:49;14.90;62.50
21770;DHT22;11046;49.558;8.674;2023-04-15T12:41:53;15.10;62.90
21770;DHT22;11046;49.558;8.674;2023-04-15T12:44:54;15.10;62.60
21770;DHT22;11046;49.558;8.674;2023-04-15T12:47:55;15.10;62.60
21770;DHT22;11046;49.558;8.674;2023-04-15T12:50:56;14.90;62.70
21770;DHT22;11046;49.558;8.674;2023-04-15T12:53:59;15.00;63.00
21770;DHT22;11046;49.558;8.674;2023-04-15T12:57:03;15.00;62.70
21770;DHT22;11046;49.558;8.674;2023-04-15T13:00:07;15.00;62.80
21770;DHT22;11046;49.558;8.674;2023-04-15T13:03:08;15.00;62.50
21770;DHT22;11046;49.558;8.674;2023-04-15T13:06:09;14.90;62.50
21770;DHT22;11046;49.558;8.674;2023-04-15T13:09:11;14.90;62.10
21770;DHT22;11046;49.558;8.674;2023-04-15T13:12:11;14.80;61.80
21770;DHT22;11046;49.558;8.674;2023-04-15T13:15:14;14.80;61.60
21770;DHT22;11046;49.558;8.674;2023-04-15T13:18:14;14.60;61.30
21770;DHT22;11046;49.558;8.674;2023-04-15T13:21:17;14.50;61.80
21770;DHT22;11046;49.558;8.674;2023-04-15T13:24:18;14.50;61.80
21770;DHT22;11046;49.558;8.674;2023-04-15T13:27:19;14.40;61.40
21770;DHT22;11046;49.558;8.674;2023-04-15T13:30:19;14.30;61.40
21770;DHT22;11046;49.558;8.674;2023-04-15T13:33:21;14.30;61.40
21770;DHT22;11046;49.558;8.674;2023-04-15T13:36:21;14.20;61.90
21770;DHT22;11046;49.558;8.674;2023-04-15T13:39:22;14.10;62.30
21770;DHT22;11046;49.558;8.674;2023-04-15T13:42:23;14.00;62.70
21770;DHT22;11046;49.558;8.674;2023-04-15T13:45:27;14.00;63.20
21770;DHT22;11046;49.558;8.674;2023-04-15T13:48:28;14.10;64.20
21770;DHT22;11046;49.558;8.674;2023-04-15T13:51:29;14.10;65.00
21770;DHT22;11046;49.558;8.674;2023-04-15T13:54:30;14.10;65.70
21770;DHT22;11046;49.558;8.674;2023-04-15T13:57:31;14.10;65.80
21770;DHT22;11046;49.558;8.674;2023-04-15T14:00:32;14.00;65.80
21770;DHT22;11046;49.558;8.674;2023-04-15T14:03:34;13.80;66.10
21770;DHT22;11046;49.558;8.674;2023-04-15T14:06:35;13.60;67.60
21770;DHT22;11046;49.558;8.674;2023-04-15T14:09:42;13.30;69.70
21770;DHT22;11046;49.558;8.674;2023-04-15T14:12:44;13.10;71.90
21770;DHT22;11046;49.558;8.674;2023-04-15T14:15:45;13.00;72.60
21770;DHT22;11046;49.558;8.674;2023-04-15T14:18:46;13.10;73.40
21770;DHT22;11046;49.558;8.674;2023-04-15T14:21:47;13.20;73.90
21770;DHT22;11046;49.558;8.674;2023-04-15T14:24:48;13.30;73.90
21770;DHT22;11046;49.558;8.674;2023-04-15T14:27:49;13.10;74.70
21770;DHT22;11046;49.558;8.674;2023-04-15T14:30:50;13.00;75.30
21770;DHT22;11046;49.558;8.674;2023-04-15T14:33:51;13.00;75.70
21770;DHT22;11046;49.558;8.674;2023-04-15T14:36:54;13.00;76.10
21770;DHT22;11046;49.558;8.674;2023-04-15T14:39:55;13.10;76.10
21770;DHT22;11046;49.558;8.674;2023-04-15T14:42:56;13.00;76.00
21770;DHT22;11046;49.558;8.674;2023-04-15T14:46:06;12.90;76.30
21770;DHT22;11046;49.558;8.674;2023-04-15T14:49:08;12.90;76.20
21770;DHT22;11046;49.558;8.674;2023-04-15T14:52:08;12.80;76.20
21770;DHT22;11046;49.558;8.674;2023-04-15T14:55:11;12.60;76.60
21770;DHT22;11046;49.558;8.674;2023-04-15T14:58:12;12.40;77.00
21770;DHT22;11046;49.558;8.674;2023-04-15T15:01:15;12.20;77.50
21770;DHT22;11046;49.558;8.674;2023-04-15T15:04:16;12.20;77.60
21770;DHT22;11046;49.558;8.674;2023-04-15T15:07:17;12.20;77.70
21770;DHT22;11046;49.558;8.674;2023-04-15T15:10:18;12.20;77.80
21770;DHT22;11046;49.558;8.674;2023-04-15T15:13:21;12.20;78.00
21770;DHT22;11046;49.558;8.674;2023-04-15T15:16:24;12.20;78.20
21770;DHT22;11046;49.558;8.674;2023-04-15T15:19:29;12.10;78.30
21770;DHT22;11046;49.558;8.674;2023-04-15T15:22:29;12.00;78.70
21770;DHT22;11046;49.558;8.674;2023-04-15T15:25:30;12.10;78.80
21770;DHT22;11046;49.558;8.674;2023-04-15T15:28:31;12.00;79.20
21770;DHT22;11046;49.558;8.674;2023-04-15T15:31:34;11.90;79.80
21770;DHT22;11046;49.558;8.674;2023-04-15T15:34:37;11.90;80.70
21770;DHT22;11046;49.558;8.674;2023-04-15T15:37:40;11.90;81.10
21770;DHT22;11046;49.558;8.674;2023-04-15T15:40:41;12.00;81.80
21770;DHT22;11046;49.558;8.674;2023-04-15T15:43:42;12.00;81.90
21770;DHT22;11046;49.558;8.674;2023-04-15T15:46:45;11.80;82.40
21770;DHT22;11046;49.558;8.674;2023-04-15T15:49:46;11.80;82.90
21770;DHT22;11046;49.558;8.674;2023-04-15T15:52:47;11.70;83.20
21770;DHT22;11046;49.558;8.674;2023-04-15T15:55:50;11.70;83.90
21770;DHT22;11046;49.558;8.674;2023-04-15T15:58:51;11.60;84.30
21770;DHT22;11046;49.558;8.674;2023-04-15T16:01:52;11.40;84.70
21770;DHT22;11046;49.558;8.674;2023-04-15T16:04:55;11.30;85.10
21770;DHT22;11046;49.558;8.674;2023-04-15T16:07:56;11.10;85.70
21770;DHT22;11046;49.558;8.674;2023-04-15T16:10:57;11.00;85.80
21770;DHT22;11046;49.558;8.674;2023-04-15T16:14:09;10.90;86.00
21770;DHT22;11046;49.558;8.674;2023-04-15T16:17:12;10.90;86.50
21770;DHT22;11046;49.558;8.674;2023-04-15T16:20:15;11.00;86.40
21770;DHT22;11046;49.558;8.674;2023-04-15T16:23:19;10.90;86.30
21770;DHT22;11046;49.558;8.674;2023-04-15T16:26:22;10.80;86.60
21770;DHT22;11046;49.558;8.674;2023-04-15T16:29:23;10.80;86.90
21770;DHT22;11046;49.558;8.674;2023-04-15T16:32:27;10.70;87.30
21770;DHT22;11046;49.558;8.674;2023-04-15T16:35:28;10.60;88.00
21770;DHT22;11046;49.558;8.674;2023-04-15T16:38:29;10.50;88.00
21770;DHT22;11046;49.558;8.674;2023-04-15T16:41:30;10.50;88.50
21770;DHT22;11046;49.558;8.674;2023-04-15T16:44:31;10.40;89.10
21770;DHT22;11046;49.558;8.674;2023-04-15T16:47:35;10.30;89.70
21770;DHT22;11046;49.558;8.674;2023-04-15T16:50:38;10.40;90.00
21770;DHT22;11046;49.558;8.674;2023-04-15T16:53:39;10.30;90.20
21770;DHT22;11046;49.558;8.674;2023-04-15T16:56:40;10.30;90.50
21770;DHT22;11046;49.558;8.674;2023-04-15T16:59:41;10.10;90.60
21770;DHT22;11046;49.558;8.674;2023-04-15T17:02:50;10.10;90.90
21770;DHT22;11046;49.558;8.674;2023-04-15T17:05:56;10.00;91.00
21770;DHT22;11046;49.558;8.674;2023-04-15T17:08:59;10.10;91.20
21770;DHT22;11046;49.558;8.674;2023-04-15T17:12:00;10.00;91.50
21770;DHT22;11046;49.558;8.674;2023-04-15T17:15:06;9.90;91.70
21770;DHT22;11046;49.558;8.674;2023-04-15T17:18:07;9.90;91.80
21770;DHT22;11046;49.558;8.674;2023-04-15T17:21:11;9.90;91.90
21770;DHT22;11046;49.558;8.674;2023-04-15T17:24:17;9.80;92.00
21770;DHT22;11046;49.558;8.674;2023-04-15T17:27:21;9.80;92.10
21770;DHT22;11046;49.558;8.674;2023-04-15T17:30:22;9.90;92.60
21770;DHT22;11046;49.558;8.674;2023-04-15T17:33:26;9.90;92.30
21770;DHT22;11046;49.558;8.674;2023-04-15T17:36:27;9.80;92.50
21770;DHT22;11046;49.558;8.674;2023-04-15T17:39:28;9.80;92.50
21770;DHT22;11046;49.558;8.674;2023-04-15T17:42:29;9.70;92.80
21770;DHT22;11046;49.558;8.674;2023-04-15T17:45:29;9.70;93.00
21770;DHT22;11046;49.558;8.674;2023-04-15T17:48:30;9.70;93.00
21770;DHT22;11046;49.558;8.674;2023-04-15T17:51:31;9.70;93.20
21770;DHT22;11046;49.558;8.674;2023-04-15T17:54:40;9.60;93.30
21770;DHT22;11046;49.558;8.674;2023-04-15T17:57:44;9.60;93.50
21770;DHT22;11046;49.558;8.674;2023-04-15T18:00:46;9.50;93.70
21770;DHT22;11046;49.558;8.674;2023-04-15T18:03:48;9.40;93.90
21770;DHT22;11046;49.558;8.674;2023-04-15T18:06:51;9.40;94.20
21770;DHT22;11046;49.558;8.674;2023-04-15T18:09:52;9.30;94.40
21770;DHT22;11046;49.558;8.674;2023-04-15T18:12:55;9.30;94.40
21770;DHT22;11046;49.558;8.674;2023-04-15T18:15:58;9.30;94.50
21770;DHT22;11046;49.558;8.674;2023-04-15T18:19:02;9.20;94.60
21770;DHT22;11046;49.558;8.674;2023-04-15T18:22:05;9.20;94.70
21770;DHT22;11046;49.558;8.674;2023-04-15T18:25:07;9.20;94.90
21770;DHT22;11046;49.558;8.674;2023-04-15T18:28:14;9.10;95.10
21770;DHT22;11046;49.558;8.674;2023-04-15T18:31:17;9.20;95.10
21770;DHT22;11046;49.558;8.674;2023-04-15T18:34:18;9.10;95.00
21770;DHT22;11046;49.558;8.674;2023-04-15T18:37:19;9.10;95.20
21770;DHT22;11046;49.558;8.674;2023-04-15T18:40:19;9.20;95.10
21770;DHT22;11046;49.558;8.674;2023-04-15T18:43:20;9.20;95.20
21770;DHT22;11046;49.558;8.674;2023-04-15T18:46:21;9.20;95.30
21770;DHT22;11046;49.558;8.674;2023-04-15T18:49:22;9.20;95.40
21770;DHT22;11046;49.558;8.674;2023-04-15T18:52:22;9.20;95.30
21770;DHT22;11046;49.558;8.674;2023-04-15T18:55:23;9.20;95.40
21770;DHT22;11046;49.558;8.674;2023-04-15T18:58:24;9.20;95.50
21770;DHT22;11046;49.558;8.674;2023-04-15T19:01:25;9.20;95.60
21770;DHT22;11046;49.558;8.674;2023-04-15T19:04:25;9.20;95.80
21770;DHT22;11046;49.558;8.674;2023-04-15T19:07:29;9.20;95.70
21770;DHT22;11046;49.558;8.674;2023-04-15T19:10:29;9.20;95.80
21770;DHT22;11046;49.558;8.674;2023-04-15T19:13:30;9.20;95.80
21770;DHT22;11046;49.558;8.674;2023-04-15T19:16:31;9.20;95.80
21770;DHT22;11046;49.558;8.674;2023-04-15T19:19:31;9.20;95.90
21770;DHT22;11046;49.558;8.674;2023-04-15T19:22:32;9.20;96.10
21770;DHT22;11046;49.558;8.674;2023-04-15T19:25:33;9.20;96.10
21770;DHT22;11046;49.558;8.674;2023-04-15T19:28:33;9.20;96.20
21770;DHT22;11046;49.558;8.674;2023-04-15T19:31:34;9.20;96.30
21770;DHT22;11046;49.558;8.674;2023-04-15T19:34:35;9.20;96.30
21770;DHT22;11046;49.558;8.674;2023-04-15T19:37:35;9.20;96.40
21770;DHT22;11046;49.558;8.674;2023-04-15T19:40:36;9.20;96.40
21770;DHT22;11046;49.558;8.674;2023-04-15T19:43:36;9.10;96.60
21770;DHT22;11046;49.558;8.674;2023-04-15T19:46:38;9.20;96.70
21770;DHT22;11046;49.558;8.674;2023-04-15T19:49:39;9.10;96.70
21770;DHT22;11046;49.558;8.674;2023-04-15T19:52:39;9.00;96.90
21770;DHT22;11046;49.558;8.674;2023-04-15T19:55:40;9.00;96.90
21770;DHT22;11046;49.558;8.674;2023-04-15T19:58:40;9.10;97.00
21770;DHT22;11046;49.558;8.674;2023-04-15T20:01:41;9.00;97.10